sensor_id;sensor_type;location;lat;lon;timestamp;P1;durP1;ratioP1;P2;durP2;ratioP2
4355;SDS011;64374;51.482;7.408;2022-12-16T00:00:02;53.83;;;26.23;;
4355;SDS011;64374;51.482;7.408;2022-12-16T00:02:34;44.53;;;23.03;;
4355;SDS011;64374;51.482;7.408;2022-12-16T00:05:03;50.30;;;24.20;;
4355;SDS011;64374;51.482;7.408;2022-12-16T00:07:33;41.00;;;23.50;;
4355;SDS011;64374;51.482;7.408;2022-12-16T00:10:01;44.03;;;23.20;;
4355;SDS011;64374;51.482;7.408;2022-12-16T00:12:30;46.17;;;22.70;;
4355;SDS011;64374;51.482;7.408;2022-12-16T00:14:59;41.90;;;21.20;;
4355;SDS011;64374;51.482;7.408;2022-12-16T00:17:27;42.10;;;22.23;;
4355;SDS011;64374;51.482;7.408;2022-12-16T00:19:57;40.53;;;21.87;;
4355;SDS011;64374;51.482;7.408;2022-12-16T00:22:26;46.80;;;22.67;;
4355;SDS011;64374;51.482;7.408;2022-12-16T00:24:54;42.53;;;20.97;;
4355;SDS011;64374;51.482;7.408;2022-12-16T00:27:23;42.90;;;20.37;;
4355;SDS011;64374;51.482;7.408;2022-12-16T00:29:51;47.07;;;21.57;;
4355;SDS011;64374;51.482;7.408;2022-12-16T00:32:22;41.27;;;21.60;;
4355;SDS011;64374;51.482;7.408;2022-12-16T00:34:51;41.20;;;20.33;;
4355;SDS011;64374;51.482;7.408;2022-12-16T00:37:24;39.77;;;18.80;;
4355;SDS011;64374;51.482;7.408;2022-12-16T00:39:54;35.40;;;19.03;;
4355;SDS011;64374;51.482;7.408;2022-12-16T00:42:24;36.50;;;19.80;;
4355;SDS011;64374;51.482;7.408;2022-12-16T00:44:52;33.33;;;18.83;;
4355;SDS011;64374;51.482;7.408;2022-12-16T00:47:21;34.33;;;18.73;;
4355;SDS011;64374;51.482;7.408;2022-12-16T00:49:49;34.53;;;18.60;;
4355;SDS011;64374;51.482;7.408;2022-12-16T00:52:24;37.77;;;19.00;;
4355;SDS011;64374;51.482;7.408;2022-12-16T00:54:53;33.70;;;17.83;;
4355;SDS011;64374;51.482;7.408;2022-12-16T00:57:23;35.50;;;18.30;;
4355;SDS011;64374;51.482;7.408;2022-12-16T00:59:51;32.73;;;17.50;;
4355;SDS011;64374;51.482;7.408;2022-12-16T01:02:27;34.33;;;16.77;;
4355;SDS011;64374;51.482;7.408;2022-12-16T01:04:56;37.60;;;17.57;;
4355;SDS011;64374;51.482;7.408;2022-12-16T01:07:25;36.60;;;18.13;;
4355;SDS011;64374;51.482;7.408;2022-12-16T01:09:54;37.17;;;17.90;;
4355;SDS011;64374;51.482;7.408;2022-12-16T01:12:22;36.53;;;17.30;;
4355;SDS011;64374;51.482;7.408;2022-12-16T01:14:50;33.73;;;17.07;;
4355;SDS011;64374;51.482;7.408;2022-12-16T01:17:21;35.07;;;17.90;;
4355;SDS011;64374;51.482;7.408;2022-12-16T01:19:52;34.27;;;17.00;;
4355;SDS011;64374;51.482;7.408;2022-12-16T01:22:24;38.60;;;18.70;;
4355;SDS011;64374;51.482;7.408;2022-12-16T01:24:59;36.10;;;17.83;;
4355;SDS011;64374;51.482;7.408;2022-12-16T01:27:27;39.10;;;19.70;;
4355;SDS011;64374;51.482;7.408;2022-12-16T01:29:56;34.30;;;18.27;;
4355;SDS011;64374;51.482;7.408;2022-12-16T01:32:27;39.57;;;20.03;;
4355;SDS011;64374;51.482;7.408;2022-12-16T01:34:55;33.23;;;18.40;;
4355;SDS011;64374;51.482;7.408;2022-12-16T01:37:25;35.50;;;18.23;;
4355;SDS011;64374;51.482;7.408;2022-12-16T01:39:54;32.77;;;18.33;;
4355;SDS011;64374;51.482;7.408;2022-12-16T01:42:22;31.07;;;16.60;;
4355;SDS011;64374;51.482;7.408;2022-12-16T01:44:54;32.77;;;16.53;;
4355;SDS011;64374;51.482;7.408;2022-12-16T01:47:24;28.03;;;13.87;;
4355;SDS011;64374;51.482;7.408;2022-12-16T01:49:57;29.30;;;14.80;;
4355;SDS011;64374;51.482;7.408;2022-12-16T01:52:31;24.53;;;13.07;;
4355;SDS011;64374;51.482;7.408;2022-12-16T01:55:04;31.03;;;14.47;;
4355;SDS011;64374;51.482;7.408;2022-12-16T01:57:37;31.83;;;13.80;;
4355;SDS011;64374;51.482;7.408;2022-12-16T02:00:10;29.20;;;13.83;;
4355;SDS011;64374;51.482;7.408;2022-12-16T02:02:39;26.87;;;14.80;;
4355;SDS011;64374;51.482;7.408;2022-12-16T02:05:15;27.60;;;14.33;;
4355;SDS011;64374;51.482;7.408;2022-12-16T02:10:44;29.10;;;14.63;;
4355;SDS011;64374;51.482;7.408;2022-12-16T02:13:30;30.23;;;15.50;;
4355;SDS011;64374;51.482;7.408;2022-12-16T02:16:07;27.70;;;13.77;;
4355;SDS011;64374;51.482;7.408;2022-12-16T02:18:44;30.37;;;14.27;;
4355;SDS011;64374;51.482;7.408;2022-12-16T02:21:23;24.77;;;13.50;;
4355;SDS011;64374;51.482;7.408;2022-12-16T02:27:16;31.90;;;13.23;;
4355;SDS011;64374;51.482;7.408;2022-12-16T02:33:27;28.73;;;15.40;;
4355;SDS011;64374;51.482;7.408;2022-12-16T02:36:14;24.23;;;12.97;;
4355;SDS011;64374;51.482;7.408;2022-12-16T02:38:52;23.27;;;13.10;;
4355;SDS011;64374;51.482;7.408;2022-12-16T02:41:31;29.80;;;13.43;;
4355;SDS011;64374;51.482;7.408;2022-12-16T02:44:04;29.40;;;14.13;;
4355;SDS011;64374;51.482;7.408;2022-12-16T02:46:38;24.77;;;14.10;;
4355;SDS011;64374;51.482;7.408;2022-12-16T02:52:11;27.40;;;14.50;;
4355;SDS011;64374;51.482;7.408;2022-12-16T02:54:41;30.33;;;14.83;;
4355;SDS011;64374;51.482;7.408;2022-12-16T03:00:08;32.07;;;14.40;;
4355;SDS011;64374;51.482;7.408;2022-12-16T03:02:40;24.57;;;13.17;;
4355;SDS011;64374;51.482;7.408;2022-12-16T03:05:17;32.77;;;12.70;;
4355;SDS011;64374;51.482;7.408;2022-12-16T03:07:53;22.97;;;12.37;;
4355;SDS011;64374;51.482;7.408;2022-12-16T03:10:25;23.43;;;12.93;;
4355;SDS011;64374;51.482;7.408;2022-12-16T03:12:57;27.10;;;13.70;;
4355;SDS011;64374;51.482;7.408;2022-12-16T03:15:29;23.50;;;13.30;;
4355;SDS011;64374;51.482;7.408;2022-12-16T03:18:00;22.90;;;11.47;;
4355;SDS011;64374;51.482;7.408;2022-12-16T03:20:33;24.50;;;13.30;;
4355;SDS011;64374;51.482;7.408;2022-12-16T03:23:06;24.47;;;13.03;;
4355;SDS011;64374;51.482;7.408;2022-12-16T03:25:40;28.70;;;12.00;;
4355;SDS011;64374;51.482;7.408;2022-12-16T03:28:13;29.83;;;12.07;;
4355;SDS011;64374;51.482;7.408;2022-12-16T03:30:54;26.57;;;13.50;;
4355;SDS011;64374;51.482;7.408;2022-12-16T03:33:32;23.30;;;11.73;;
4355;SDS011;64374;51.482;7.408;2022-12-16T03:36:05;21.13;;;10.87;;
4355;SDS011;64374;51.482;7.408;2022-12-16T03:41:27;22.80;;;11.60;;
4355;SDS011;64374;51.482;7.408;2022-12-16T03:43:56;20.80;;;11.60;;
4355;SDS011;64374;51.482;7.408;2022-12-16T03:46:25;21.23;;;11.50;;
4355;SDS011;64374;51.482;7.408;2022-12-16T03:48:54;29.57;;;12.50;;
4355;SDS011;64374;51.482;7.408;2022-12-16T03:51:22;25.60;;;13.07;;
4355;SDS011;64374;51.482;7.408;2022-12-16T03:53:51;31.80;;;14.63;;
4355;SDS011;64374;51.482;7.408;2022-12-16T03:56:25;26.30;;;13.13;;
4355;SDS011;64374;51.482;7.408;2022-12-16T03:58:53;25.37;;;13.40;;
4355;SDS011;64374;51.482;7.408;2022-12-16T04:01:22;23.20;;;12.20;;
4355;SDS011;64374;51.482;7.408;2022-12-16T04:03:50;27.37;;;12.50;;
4355;SDS011;64374;51.482;7.408;2022-12-16T04:06:22;24.50;;;12.97;;
4355;SDS011;64374;51.482;7.408;2022-12-16T04:08:50;23.57;;;14.13;;
4355;SDS011;64374;51.482;7.408;2022-12-16T04:11:19;24.30;;;14.10;;
4355;SDS011;64374;51.482;7.408;2022-12-16T04:14:07;27.20;;;14.47;;
4355;SDS011;64374;51.482;7.408;2022-12-16T04:16:53;28.67;;;13.90;;
4355;SDS011;64374;51.482;7.408;2022-12-16T04:19:40;23.83;;;13.40;;
4355;SDS011;64374;51.482;7.408;2022-12-16T04:22:30;34.37;;;14.67;;
4355;SDS011;64374;51.482;7.408;2022-12-16T04:25:20;27.50;;;14.67;;
4355;SDS011;64374;51.482;7.408;2022-12-16T04:27:49;23.63;;;14.67;;
4355;SDS011;64374;51.482;7.408;2022-12-16T04:30:19;27.17;;;14.97;;
4355;SDS011;64374;51.482;7.408;2022-12-16T04:32:51;22.67;;;14.47;;
4355;SDS011;64374;51.482;7.408;2022-12-16T04:35:41;20.50;;;13.07;;
4355;SDS011;64374;51.482;7.408;2022-12-16T04:38:27;24.47;;;12.27;;
4355;SDS011;64374;51.482;7.408;2022-12-16T04:41:14;28.80;;;12.90;;
4355;SDS011;64374;51.482;7.408;2022-12-16T04:44:07;29.70;;;14.00;;
4355;SDS011;64374;51.482;7.408;2022-12-16T04:47:00;33.93;;;13.30;;
4355;SDS011;64374;51.482;7.408;2022-12-16T04:49:45;24.10;;;12.53;;
4355;SDS011;64374;51.482;7.408;2022-12-16T04:52:34;23.20;;;12.13;;
4355;SDS011;64374;51.482;7.408;2022-12-16T04:55:20;18.20;;;10.40;;
4355;SDS011;64374;51.482;7.408;2022-12-16T04:58:07;23.60;;;11.70;;
4355;SDS011;64374;51.482;7.408;2022-12-16T05:00:53;25.63;;;13.30;;
4355;SDS011;64374;51.482;7.408;2022-12-16T05:03:41;21.17;;;10.33;;
4355;SDS011;64374;51.482;7.408;2022-12-16T05:06:27;24.10;;;11.97;;
4355;SDS011;64374;51.482;7.408;2022-12-16T05:09:14;18.13;;;10.33;;
4355;SDS011;64374;51.482;7.408;2022-12-16T05:12:03;22.93;;;11.67;;
4355;SDS011;64374;51.482;7.408;2022-12-16T05:14:48;19.67;;;11.23;;
4355;SDS011;64374;51.482;7.408;2022-12-16T05:17:34;19.83;;;10.50;;
4355;SDS011;64374;51.482;7.408;2022-12-16T05:20:24;17.70;;;10.97;;
4355;SDS011;64374;51.482;7.408;2022-12-16T05:23:11;20.67;;;12.50;;
4355;SDS011;64374;51.482;7.408;2022-12-16T05:25:57;20.93;;;11.80;;
4355;SDS011;64374;51.482;7.408;2022-12-16T05:28:43;24.77;;;12.73;;
4355;SDS011;64374;51.482;7.408;2022-12-16T05:31:28;23.13;;;12.13;;
4355;SDS011;64374;51.482;7.408;2022-12-16T05:34:15;34.67;;;17.30;;
4355;SDS011;64374;51.482;7.408;2022-12-16T05:37:02;43.17;;;24.10;;
4355;SDS011;64374;51.482;7.408;2022-12-16T05:39:48;29.30;;;16.30;;
4355;SDS011;64374;51.482;7.408;2022-12-16T05:42:34;43.27;;;20.20;;
4355;SDS011;64374;51.482;7.408;2022-12-16T05:45:20;70.70;;;35.73;;
4355;SDS011;64374;51.482;7.408;2022-12-16T05:48:06;39.63;;;17.80;;
4355;SDS011;64374;51.482;7.408;2022-12-16T05:50:52;24.73;;;14.30;;
4355;SDS011;64374;51.482;7.408;2022-12-16T05:53:39;23.67;;;12.50;;
4355;SDS011;64374;51.482;7.408;2022-12-16T05:56:26;23.57;;;12.30;;
4355;SDS011;64374;51.482;7.408;2022-12-16T05:59:12;26.23;;;11.63;;
4355;SDS011;64374;51.482;7.408;2022-12-16T06:01:58;23.60;;;11.77;;
4355;SDS011;64374;51.482;7.408;2022-12-16T06:04:44;20.37;;;10.93;;
4355;SDS011;64374;51.482;7.408;2022-12-16T06:07:31;23.17;;;11.43;;
4355;SDS011;64374;51.482;7.408;2022-12-16T06:10:18;25.83;;;11.87;;
4355;SDS011;64374;51.482;7.408;2022-12-16T06:13:07;20.03;;;12.10;;
4355;SDS011;64374;51.482;7.408;2022-12-16T06:15:53;25.00;;;12.00;;
4355;SDS011;64374;51.482;7.408;2022-12-16T06:18:41;24.30;;;11.10;;
4355;SDS011;64374;51.482;7.408;2022-12-16T06:21:30;22.43;;;11.33;;
4355;SDS011;64374;51.482;7.408;2022-12-16T06:24:16;30.43;;;14.20;;
4355;SDS011;64374;51.482;7.408;2022-12-16T06:27:05;24.83;;;11.50;;
4355;SDS011;64374;51.482;7.408;2022-12-16T06:29:53;22.20;;;11.37;;
4355;SDS011;64374;51.482;7.408;2022-12-16T06:32:39;17.80;;;10.83;;
4355;SDS011;64374;51.482;7.408;2022-12-16T06:35:26;27.20;;;11.93;;
4355;SDS011;64374;51.482;7.408;2022-12-16T06:38:12;27.33;;;13.50;;
4355;SDS011;64374;51.482;7.408;2022-12-16T06:40:58;34.70;;;13.83;;
4355;SDS011;64374;51.482;7.408;2022-12-16T06:43:45;22.00;;;14.50;;
4355;SDS011;64374;51.482;7.408;2022-12-16T06:46:38;27.70;;;14.77;;
4355;SDS011;64374;51.482;7.408;2022-12-16T06:49:24;28.33;;;14.57;;
4355;SDS011;64374;51.482;7.408;2022-12-16T06:52:10;23.37;;;13.33;;
4355;SDS011;64374;51.482;7.408;2022-12-16T06:54:56;23.43;;;11.60;;
4355;SDS011;64374;51.482;7.408;2022-12-16T06:57:42;26.30;;;12.40;;
4355;SDS011;64374;51.482;7.408;2022-12-16T07:00:36;21.50;;;12.30;;
4355;SDS011;64374;51.482;7.408;2022-12-16T07:03:30;29.20;;;14.30;;
4355;SDS011;64374;51.482;7.408;2022-12-16T07:06:16;26.67;;;13.77;;
4355;SDS011;64374;51.482;7.408;2022-12-16T07:09:02;26.90;;;13.70;;
4355;SDS011;64374;51.482;7.408;2022-12-16T07:11:48;31.33;;;13.10;;
4355;SDS011;64374;51.482;7.408;2022-12-16T07:14:34;23.40;;;12.57;;
4355;SDS011;64374;51.482;7.408;2022-12-16T07:17:31;25.33;;;12.37;;
4355;SDS011;64374;51.482;7.408;2022-12-16T07:20:17;23.30;;;13.60;;
4355;SDS011;64374;51.482;7.408;2022-12-16T07:23:03;17.73;;;11.57;;
4355;SDS011;64374;51.482;7.408;2022-12-16T07:25:50;28.03;;;14.20;;
4355;SDS011;64374;51.482;7.408;2022-12-16T07:28:36;27.43;;;12.50;;
4355;SDS011;64374;51.482;7.408;2022-12-16T07:31:22;21.17;;;11.63;;
4355;SDS011;64374;51.482;7.408;2022-12-16T07:34:15;18.53;;;11.60;;
4355;SDS011;64374;51.482;7.408;2022-12-16T07:37:08;23.50;;;11.27;;
4355;SDS011;64374;51.482;7.408;2022-12-16T07:39:54;31.53;;;13.77;;
4355;SDS011;64374;51.482;7.408;2022-12-16T07:42:44;16.90;;;9.80;;
4355;SDS011;64374;51.482;7.408;2022-12-16T07:45:30;25.60;;;10.73;;
4355;SDS011;64374;51.482;7.408;2022-12-16T07:48:20;18.50;;;10.23;;
4355;SDS011;64374;51.482;7.408;2022-12-16T07:51:08;17.07;;;9.33;;
4355;SDS011;64374;51.482;7.408;2022-12-16T07:53:54;21.27;;;10.57;;
4355;SDS011;64374;51.482;7.408;2022-12-16T07:56:40;21.87;;;10.83;;
4355;SDS011;64374;51.482;7.408;2022-12-16T07:59:25;16.73;;;9.27;;
4355;SDS011;64374;51.482;7.408;2022-12-16T08:02:12;22.90;;;11.20;;
4355;SDS011;64374;51.482;7.408;2022-12-16T08:04:58;19.60;;;9.70;;
4355;SDS011;64374;51.482;7.408;2022-12-16T08:07:53;18.93;;;9.97;;
4355;SDS011;64374;51.482;7.408;2022-12-16T08:10:42;17.60;;;9.87;;
4355;SDS011;64374;51.482;7.408;2022-12-16T08:13:30;16.50;;;10.63;;
4355;SDS011;64374;51.482;7.408;2022-12-16T08:16:21;21.03;;;10.63;;
4355;SDS011;64374;51.482;7.408;2022-12-16T08:19:07;16.97;;;10.50;;
4355;SDS011;64374;51.482;7.408;2022-12-16T08:21:53;18.63;;;10.23;;
4355;SDS011;64374;51.482;7.408;2022-12-16T08:24:41;21.83;;;10.17;;
4355;SDS011;64374;51.482;7.408;2022-12-16T08:27:28;22.30;;;12.17;;
4355;SDS011;64374;51.482;7.408;2022-12-16T08:30:15;31.73;;;14.03;;
4355;SDS011;64374;51.482;7.408;2022-12-16T08:33:01;21.77;;;12.07;;
4355;SDS011;64374;51.482;7.408;2022-12-16T08:35:46;20.67;;;11.37;;
4355;SDS011;64374;51.482;7.408;2022-12-16T08:38:34;24.10;;;12.20;;
4355;SDS011;64374;51.482;7.408;2022-12-16T08:41:23;28.43;;;13.90;;
4355;SDS011;64374;51.482;7.408;2022-12-16T08:44:10;24.40;;;12.53;;
4355;SDS011;64374;51.482;7.408;2022-12-16T08:46:58;26.50;;;15.30;;
4355;SDS011;64374;51.482;7.408;2022-12-16T08:49:47;34.70;;;15.80;;
4355;SDS011;64374;51.482;7.408;2022-12-16T08:52:33;28.33;;;14.10;;
4355;SDS011;64374;51.482;7.408;2022-12-16T08:55:19;27.13;;;15.53;;
4355;SDS011;64374;51.482;7.408;2022-12-16T08:58:06;23.93;;;12.40;;
4355;SDS011;64374;51.482;7.408;2022-12-16T09:00:51;28.40;;;12.80;;
4355;SDS011;64374;51.482;7.408;2022-12-16T09:03:39;26.03;;;13.60;;
4355;SDS011;64374;51.482;7.408;2022-12-16T09:06:26;28.20;;;13.43;;
4355;SDS011;64374;51.482;7.408;2022-12-16T09:09:13;26.10;;;14.77;;
4355;SDS011;64374;51.482;7.408;2022-12-16T09:11:59;30.27;;;14.37;;
4355;SDS011;64374;51.482;7.408;2022-12-16T09:14:46;27.50;;;13.30;;
4355;SDS011;64374;51.482;7.408;2022-12-16T09:17:34;26.63;;;14.00;;
4355;SDS011;64374;51.482;7.408;2022-12-16T09:20:22;21.87;;;12.83;;
4355;SDS011;64374;51.482;7.408;2022-12-16T09:23:08;19.50;;;12.27;;
4355;SDS011;64374;51.482;7.408;2022-12-16T09:25:56;20.80;;;12.13;;
4355;SDS011;64374;51.482;7.408;2022-12-16T09:28:43;25.97;;;12.77;;
4355;SDS011;64374;51.482;7.408;2022-12-16T09:31:30;24.53;;;12.83;;
4355;SDS011;64374;51.482;7.408;2022-12-16T09:34:15;22.00;;;12.30;;
4355;SDS011;64374;51.482;7.408;2022-12-16T09:37:01;23.90;;;12.27;;
4355;SDS011;64374;51.482;7.408;2022-12-16T09:39:50;19.77;;;12.90;;
4355;SDS011;64374;51.482;7.408;2022-12-16T09:42:38;23.63;;;12.73;;
4355;SDS011;64374;51.482;7.408;2022-12-16T09:45:31;21.63;;;12.00;;
4355;SDS011;64374;51.482;7.408;2022-12-16T09:48:28;27.10;;;14.50;;
4355;SDS011;64374;51.482;7.408;2022-12-16T09:51:21;28.23;;;13.83;;
4355;SDS011;64374;51.482;7.408;2022-12-16T09:54:09;32.97;;;15.90;;
4355;SDS011;64374;51.482;7.408;2022-12-16T09:57:01;36.90;;;17.20;;
4355;SDS011;64374;51.482;7.408;2022-12-16T09:59:51;21.13;;;11.97;;
4355;SDS011;64374;51.482;7.408;2022-12-16T10:02:39;23.97;;;13.33;;
4355;SDS011;64374;51.482;7.408;2022-12-16T10:05:37;26.77;;;14.17;;
4355;SDS011;64374;51.482;7.408;2022-12-16T10:08:35;22.63;;;12.37;;
4355;SDS011;64374;51.482;7.408;2022-12-16T10:11:31;24.43;;;13.20;;
4355;SDS011;64374;51.482;7.408;2022-12-16T10:14:29;22.53;;;13.70;;
4355;SDS011;64374;51.482;7.408;2022-12-16T10:17:23;20.50;;;13.20;;
4355;SDS011;64374;51.482;7.408;2022-12-16T10:20:12;23.47;;;13.57;;
4355;SDS011;64374;51.482;7.408;2022-12-16T10:23:04;29.33;;;14.33;;
4355;SDS011;64374;51.482;7.408;2022-12-16T10:25:58;25.23;;;12.50;;
4355;SDS011;64374;51.482;7.408;2022-12-16T10:28:48;28.97;;;14.53;;
4355;SDS011;64374;51.482;7.408;2022-12-16T10:31:38;23.10;;;12.43;;
4355;SDS011;64374;51.482;7.408;2022-12-16T10:34:26;23.33;;;13.90;;
4355;SDS011;64374;51.482;7.408;2022-12-16T10:37:15;29.40;;;14.70;;
4355;SDS011;64374;51.482;7.408;2022-12-16T10:40:12;30.00;;;14.30;;
4355;SDS011;64374;51.482;7.408;2022-12-16T10:43:03;27.77;;;13.50;;
4355;SDS011;64374;51.482;7.408;2022-12-16T10:45:55;24.53;;;12.10;;
4355;SDS011;64374;51.482;7.408;2022-12-16T10:48:58;28.73;;;14.07;;
4355;SDS011;64374;51.482;7.408;2022-12-16T10:51:52;28.13;;;13.03;;
4355;SDS011;64374;51.482;7.408;2022-12-16T10:54:39;24.67;;;13.47;;
4355;SDS011;64374;51.482;7.408;2022-12-16T10:57:31;19.87;;;11.50;;
4355;SDS011;64374;51.482;7.408;2022-12-16T11:00:37;19.60;;;11.77;;
4355;SDS011;64374;51.482;7.408;2022-12-16T11:03:31;20.80;;;11.33;;
4355;SDS011;64374;51.482;7.408;2022-12-16T11:06:21;22.97;;;10.20;;
4355;SDS011;64374;51.482;7.408;2022-12-16T11:09:20;27.80;;;12.37;;
4355;SDS011;64374;51.482;7.408;2022-12-16T11:12:24;18.00;;;8.87;;
4355;SDS011;64374;51.482;7.408;2022-12-16T11:15:18;18.27;;;9.20;;
4355;SDS011;64374;51.482;7.408;2022-12-16T11:18:09;15.37;;;6.83;;
4355;SDS011;64374;51.482;7.408;2022-12-16T11:21:03;14.00;;;7.40;;
4355;SDS011;64374;51.482;7.408;2022-12-16T11:26:59;15.27;;;8.07;;
4355;SDS011;64374;51.482;7.408;2022-12-16T11:29:48;18.00;;;9.30;;
4355;SDS011;64374;51.482;7.408;2022-12-16T11:32:40;19.27;;;9.30;;
4355;SDS011;64374;51.482;7.408;2022-12-16T11:35:32;14.77;;;8.57;;
4355;SDS011;64374;51.482;7.408;2022-12-16T11:38:22;25.57;;;10.67;;
4355;SDS011;64374;51.482;7.408;2022-12-16T11:41:20;22.53;;;9.70;;
4355;SDS011;64374;51.482;7.408;2022-12-16T11:44:25;20.03;;;10.10;;
4355;SDS011;64374;51.482;7.408;2022-12-16T11:47:16;19.43;;;11.73;;
4355;SDS011;64374;51.482;7.408;2022-12-16T11:50:12;21.67;;;10.63;;
4355;SDS011;64374;51.482;7.408;2022-12-16T11:53:14;16.27;;;8.80;;
4355;SDS011;64374;51.482;7.408;2022-12-16T11:56:11;19.50;;;10.43;;
4355;SDS011;64374;51.482;7.408;2022-12-16T11:59:02;17.23;;;9.77;;
4355;SDS011;64374;51.482;7.408;2022-12-16T12:01:56;21.10;;;11.17;;
4355;SDS011;64374;51.482;7.408;2022-12-16T12:04:47;22.53;;;10.13;;
4355;SDS011;64374;51.482;7.408;2022-12-16T12:07:37;22.10;;;10.10;;
4355;SDS011;64374;51.482;7.408;2022-12-16T12:10:45;22.03;;;10.63;;
4355;SDS011;64374;51.482;7.408;2022-12-16T12:13:45;21.50;;;12.10;;
4355;SDS011;64374;51.482;7.408;2022-12-16T12:16:49;17.83;;;9.70;;
4355;SDS011;64374;51.482;7.408;2022-12-16T12:19:47;23.10;;;12.57;;
4355;SDS011;64374;51.482;7.408;2022-12-16T12:22:47;25.50;;;12.47;;
4355;SDS011;64374;51.482;7.408;2022-12-16T12:25:36;21.03;;;11.57;;
4355;SDS011;64374;51.482;7.408;2022-12-16T12:28:32;20.47;;;10.83;;
4355;SDS011;64374;51.482;7.408;2022-12-16T12:31:31;20.60;;;12.43;;
4355;SDS011;64374;51.482;7.408;2022-12-16T12:34:25;22.60;;;10.70;;
4355;SDS011;64374;51.482;7.408;2022-12-16T12:37:20;23.93;;;12.27;;
4355;SDS011;64374;51.482;7.408;2022-12-16T12:40:18;21.47;;;12.07;;
4355;SDS011;64374;51.482;7.408;2022-12-16T12:43:13;21.03;;;13.10;;
4355;SDS011;64374;51.482;7.408;2022-12-16T12:46:10;27.70;;;12.73;;
4355;SDS011;64374;51.482;7.408;2022-12-16T12:49:07;17.40;;;11.83;;
4355;SDS011;64374;51.482;7.408;2022-12-16T12:52:11;20.13;;;13.33;;
4355;SDS011;64374;51.482;7.408;2022-12-16T12:55:06;23.70;;;11.80;;
4355;SDS011;64374;51.482;7.408;2022-12-16T12:58:00;20.77;;;11.10;;
4355;SDS011;64374;51.482;7.408;2022-12-16T13:00:48;16.33;;;11.50;;
4355;SDS011;64374;51.482;7.408;2022-12-16T13:03:39;20.83;;;13.40;;
4355;SDS011;64374;51.482;7.408;2022-12-16T13:06:28;23.40;;;12.77;;
4355;SDS011;64374;51.482;7.408;2022-12-16T13:09:25;19.10;;;13.87;;
4355;SDS011;64374;51.482;7.408;2022-12-16T13:12:21;31.20;;;17.83;;
4355;SDS011;64374;51.482;7.408;2022-12-16T13:15:31;25.63;;;18.60;;
4355;SDS011;64374;51.482;7.408;2022-12-16T13:18:23;31.67;;;18.27;;
4355;SDS011;64374;51.482;7.408;2022-12-16T13:24:37;31.60;;;20.50;;
4355;SDS011;64374;51.482;7.408;2022-12-16T13:27:44;35.07;;;20.90;;
4355;SDS011;64374;51.482;7.408;2022-12-16T13:30:39;37.70;;;22.80;;
4355;SDS011;64374;51.482;7.408;2022-12-16T13:33:50;34.50;;;22.17;;
4355;SDS011;64374;51.482;7.408;2022-12-16T13:36:36;36.40;;;23.33;;
4355;SDS011;64374;51.482;7.408;2022-12-16T13:39:37;38.50;;;21.93;;
4355;SDS011;64374;51.482;7.408;2022-12-16T13:42:32;40.57;;;23.43;;
4355;SDS011;64374;51.482;7.408;2022-12-16T13:45:33;39.73;;;20.37;;
4355;SDS011;64374;51.482;7.408;2022-12-16T13:48:27;36.77;;;21.30;;
4355;SDS011;64374;51.482;7.408;2022-12-16T13:54:46;33.53;;;19.80;;
4355;SDS011;64374;51.482;7.408;2022-12-16T13:57:53;39.63;;;20.50;;
4355;SDS011;64374;51.482;7.408;2022-12-16T14:00:53;35.83;;;20.30;;
4355;SDS011;64374;51.482;7.408;2022-12-16T14:03:46;42.03;;;20.27;;
4355;SDS011;64374;51.482;7.408;2022-12-16T14:06:34;42.20;;;20.00;;
4355;SDS011;64374;51.482;7.408;2022-12-16T14:09:32;38.17;;;21.20;;
4355;SDS011;64374;51.482;7.408;2022-12-16T14:15:30;50.63;;;21.20;;
4355;SDS011;64374;51.482;7.408;2022-12-16T14:18:23;40.43;;;20.63;;
4355;SDS011;64374;51.482;7.408;2022-12-16T14:21:23;39.03;;;21.60;;
4355;SDS011;64374;51.482;7.408;2022-12-16T14:24:20;35.83;;;20.17;;
4355;SDS011;64374;51.482;7.408;2022-12-16T14:27:11;35.23;;;20.13;;
4355;SDS011;64374;51.482;7.408;2022-12-16T14:29:59;40.77;;;21.30;;
4355;SDS011;64374;51.482;7.408;2022-12-16T14:32:47;41.43;;;22.50;;
4355;SDS011;64374;51.482;7.408;2022-12-16T14:35:34;36.97;;;20.87;;
4355;SDS011;64374;51.482;7.408;2022-12-16T14:38:34;39.37;;;21.67;;
4355;SDS011;64374;51.482;7.408;2022-12-16T14:41:24;37.63;;;21.23;;
4355;SDS011;64374;51.482;7.408;2022-12-16T14:44:15;36.57;;;21.47;;
4355;SDS011;64374;51.482;7.408;2022-12-16T14:47:03;41.40;;;20.97;;
4355;SDS011;64374;51.482;7.408;2022-12-16T14:49:50;36.87;;;21.40;;
4355;SDS011;64374;51.482;7.408;2022-12-16T14:52:39;36.77;;;20.17;;
4355;SDS011;64374;51.482;7.408;2022-12-16T14:55:27;37.03;;;21.83;;
4355;SDS011;64374;51.482;7.408;2022-12-16T14:58:16;47.87;;;23.97;;
4355;SDS011;64374;51.482;7.408;2022-12-16T15:01:10;39.43;;;22.30;;
4355;SDS011;64374;51.482;7.408;2022-12-16T15:04:15;45.97;;;22.33;;
4355;SDS011;64374;51.482;7.408;2022-12-16T15:07:04;43.23;;;23.13;;
4355;SDS011;64374;51.482;7.408;2022-12-16T15:09:57;43.00;;;24.20;;
4355;SDS011;64374;51.482;7.408;2022-12-16T15:12:44;38.97;;;22.40;;
4355;SDS011;64374;51.482;7.408;2022-12-16T15:15:34;48.60;;;24.00;;
4355;SDS011;64374;51.482;7.408;2022-12-16T15:18:27;47.93;;;23.60;;
4355;SDS011;64374;51.482;7.408;2022-12-16T15:21:16;45.37;;;24.60;;
4355;SDS011;64374;51.482;7.408;2022-12-16T15:24:06;42.87;;;23.80;;
4355;SDS011;64374;51.482;7.408;2022-12-16T15:29:59;47.30;;;24.00;;
4355;SDS011;64374;51.482;7.408;2022-12-16T15:32:50;47.60;;;25.33;;
4355;SDS011;64374;51.482;7.408;2022-12-16T15:35:36;42.83;;;22.03;;
4355;SDS011;64374;51.482;7.408;2022-12-16T15:38:26;51.43;;;25.37;;
4355;SDS011;64374;51.482;7.408;2022-12-16T15:41:26;48.30;;;23.90;;
4355;SDS011;64374;51.482;7.408;2022-12-16T15:44:27;45.00;;;24.40;;
4355;SDS011;64374;51.482;7.408;2022-12-16T15:47:24;48.17;;;24.87;;
4355;SDS011;64374;51.482;7.408;2022-12-16T15:50:17;43.60;;;25.13;;
4355;SDS011;64374;51.482;7.408;2022-12-16T15:53:14;39.67;;;22.37;;
4355;SDS011;64374;51.482;7.408;2022-12-16T15:56:16;40.43;;;24.63;;
4355;SDS011;64374;51.482;7.408;2022-12-16T15:59:20;39.80;;;23.50;;
4355;SDS011;64374;51.482;7.408;2022-12-16T16:02:15;43.40;;;24.33;;
4355;SDS011;64374;51.482;7.408;2022-12-16T16:05:10;49.97;;;24.30;;
4355;SDS011;64374;51.482;7.408;2022-12-16T16:07:57;41.57;;;22.93;;
4355;SDS011;64374;51.482;7.408;2022-12-16T16:10:44;43.23;;;24.73;;
4355;SDS011;64374;51.482;7.408;2022-12-16T16:13:38;42.00;;;25.80;;
4355;SDS011;64374;51.482;7.408;2022-12-16T16:16:35;48.20;;;23.93;;
4355;SDS011;64374;51.482;7.408;2022-12-16T16:19:22;51.90;;;26.40;;
4355;SDS011;64374;51.482;7.408;2022-12-16T16:22:15;50.67;;;25.60;;
4355;SDS011;64374;51.482;7.408;2022-12-16T16:25:02;51.43;;;28.03;;
4355;SDS011;64374;51.482;7.408;2022-12-16T16:27:51;55.30;;;28.03;;
4355;SDS011;64374;51.482;7.408;2022-12-16T16:30:36;54.77;;;29.03;;
4355;SDS011;64374;51.482;7.408;2022-12-16T16:33:22;46.63;;;24.67;;
4355;SDS011;64374;51.482;7.408;2022-12-16T16:36:11;51.20;;;25.27;;
4355;SDS011;64374;51.482;7.408;2022-12-16T16:39:02;40.03;;;24.37;;
4355;SDS011;64374;51.482;7.408;2022-12-16T16:41:47;46.23;;;25.27;;
4355;SDS011;64374;51.482;7.408;2022-12-16T16:44:33;45.40;;;24.77;;
4355;SDS011;64374;51.482;7.408;2022-12-16T16:47:19;55.53;;;26.20;;
4355;SDS011;64374;51.482;7.408;2022-12-16T16:50:05;49.33;;;27.30;;
4355;SDS011;64374;51.482;7.408;2022-12-16T16:52:51;53.87;;;27.60;;
4355;SDS011;64374;51.482;7.408;2022-12-16T16:55:40;48.87;;;28.20;;
4355;SDS011;64374;51.482;7.408;2022-12-16T16:58:27;53.07;;;28.60;;